createdAt,value
2018-04-13T12:15:45.351Z,915.68
2018-04-13T12:16:44.910Z,915.69
2018-04-13T12:17:44.879Z,915.65
2018-04-13T12:18:44.943Z,915.67
2018-04-13T12:19:44.813Z,915.72
2018-04-13T12:20:44.794Z,915.74
2018-04-13T12:21:44.814Z,915.70
2018-04-13T12:22:44.733Z,915.76
2018-04-13T12:23:44.698Z,915.78
2018-04-13T12:24:44.663Z,915.81
2018-04-13T12:25:44.660Z,915.84
2018-04-13T12:26:44.656Z,915.83
2018-04-13T12:27:44.571Z,915.83
2018-04-13T12:28:44.733Z,915.86
2018-04-13T12:29:44.568Z,915.85
2018-04-13T12:30:44.484Z,915.87
2018-04-13T12:31:44.580Z,915.92
2018-04-13T12:32:44.598Z,915.92
2018-04-13T12:33:44.533Z,915.92
2018-04-13T12:34:44.452Z,915.91
2018-04-13T12:35:44.368Z,915.87
2018-04-13T12:36:44.344Z,915.84
2018-04-13T12:37:44.419Z,915.88
2018-04-13T12:39:44.395Z,915.88
2018-04-13T12:40:44.353Z,915.91
2018-04-13T12:41:44.195Z,915.89
2018-04-13T12:42:44.262Z,915.90
2018-04-13T12:43:44.127Z,915.94
2018-04-13T12:44:44.097Z,915.94
2018-04-13T12:45:44.068Z,915.96
2018-04-13T12:46:44.044Z,915.95
2018-04-13T12:47:44.018Z,915.95
2018-04-13T12:48:43.985Z,915.93
2018-04-13T12:49:43.941Z,915.93
2018-04-13T12:50:43.921Z,916.00
2018-04-13T12:51:43.904Z,916.01
2018-04-13T12:52:43.880Z,915.97
2018-04-13T12:53:43.842Z,915.99
2018-04-13T12:54:43.979Z,916.04
2018-04-13T12:55:43.779Z,916.02
2018-04-13T13:47:18.300Z,915.66
2018-04-13T13:48:18.027Z,915.66
2018-04-13T13:49:17.988Z,915.65
2018-04-13T13:50:17.940Z,915.59
2018-04-13T13:51:17.909Z,915.59
2018-04-13T13:52:17.865Z,915.57
2018-04-13T13:53:17.836Z,915.56
2018-04-13T13:54:17.812Z,915.56
2018-04-13T13:55:17.758Z,915.52
2018-04-13T13:56:17.728Z,915.56
2018-04-13T13:57:17.696Z,915.52
2018-04-13T13:58:17.681Z,915.53
2018-04-13T13:59:17.645Z,915.50
2018-04-13T14:00:17.608Z,915.49
2018-04-13T14:01:17.572Z,915.47
2018-04-13T14:02:17.539Z,915.44
2018-04-13T14:03:17.674Z,915.44
2018-04-13T14:04:17.486Z,915.47
2018-04-13T14:05:17.465Z,915.47
2018-04-13T14:06:17.432Z,915.44
2018-04-13T14:07:17.406Z,915.45
2018-04-13T14:08:17.360Z,915.47
2018-04-13T14:09:17.336Z,915.45
2018-04-13T14:10:17.301Z,915.47
2018-04-13T14:11:17.291Z,915.47
2018-04-13T14:12:17.242Z,915.48
2018-04-13T14:13:17.240Z,915.45
2018-04-13T14:14:17.176Z,915.46
2018-04-13T14:15:17.185Z,915.43
2018-04-13T14:16:17.156Z,915.38
2018-04-13T14:17:17.097Z,915.33
2018-04-13T14:18:17.083Z,915.34
2018-04-13T14:19:17.112Z,915.33
2018-04-13T14:20:17.015Z,915.34
2018-04-13T14:21:16.985Z,915.28
2018-04-13T14:22:16.980Z,915.32
2018-04-13T14:23:16.947Z,915.32
2018-04-13T14:24:16.900Z,915.29
2018-04-13T14:25:16.885Z,915.29
2018-04-13T14:26:16.846Z,915.30
2018-04-13T14:27:16.821Z,915.26
2018-04-13T14:28:16.809Z,915.26
2018-04-13T14:29:16.792Z,915.19
2018-04-13T14:30:16.752Z,915.16
2018-04-13T14:31:16.760Z,915.17
2018-04-13T14:32:16.696Z,915.11
2018-04-13T14:33:16.666Z,915.10
2018-04-13T14:34:16.622Z,915.07
2018-04-13T14:35:16.618Z,915.10
2018-04-13T14:36:16.577Z,915.10
2018-04-13T14:37:16.562Z,915.10
2018-04-13T14:38:16.532Z,915.11
2018-04-13T14:39:16.510Z,915.06
2018-04-13T14:40:16.579Z,915.04
2018-04-13T14:41:16.441Z,915.08
2018-04-13T14:42:16.414Z,915.04
2018-04-13T14:43:16.404Z,915.08
2018-04-13T14:44:16.383Z,915.06
2018-04-13T14:45:16.328Z,915.01
2018-04-13T14:46:16.317Z,914.98
2018-04-13T14:47:16.294Z,914.99
2018-04-13T14:48:16.266Z,914.90
2018-04-13T14:49:16.251Z,914.85
2018-04-13T14:50:16.189Z,914.87
2018-04-13T14:51:16.183Z,914.81
2018-04-13T14:52:16.148Z,914.83
2018-04-13T14:53:16.116Z,914.84
2018-04-13T14:54:16.099Z,914.87
2018-04-13T14:55:16.094Z,914.85
2018-04-13T14:56:16.048Z,914.84
2018-04-13T14:57:16.011Z,914.80
2018-04-13T14:58:16.003Z,914.83
2018-04-13T14:59:15.959Z,914.77
2018-04-13T15:00:15.952Z,914.77
2018-04-13T15:01:15.906Z,914.76
2018-04-13T15:02:15.886Z,914.77
2018-04-13T15:03:15.852Z,914.79
2018-04-13T15:04:15.825Z,914.80
2018-04-13T15:05:15.804Z,914.80
2018-04-13T15:06:16.045Z,914.75
2018-04-13T15:07:15.780Z,914.73
2018-04-13T15:08:15.721Z,914.75
2018-04-13T15:09:15.700Z,914.72
2018-04-13T15:10:15.674Z,914.70
2018-04-13T15:11:15.639Z,914.68
2018-04-13T15:12:16.177Z,914.72
2018-04-13T15:13:15.607Z,914.69
2018-04-13T15:14:15.575Z,914.65
2018-04-13T15:15:15.560Z,914.67
2018-04-13T15:16:15.517Z,914.60
2018-04-13T15:17:15.488Z,914.64
2018-04-13T15:18:15.564Z,914.62
2018-04-13T15:19:15.434Z,914.62
2018-04-13T15:20:15.406Z,914.60
2018-04-13T15:21:15.396Z,914.54
2018-04-13T15:22:15.346Z,914.58
2018-04-13T15:23:15.333Z,914.60
2018-04-13T15:24:15.297Z,914.57
2018-04-13T15:25:15.268Z,914.57
2018-04-13T15:26:15.263Z,914.60
2018-04-13T15:27:15.227Z,914.59
2018-04-13T15:28:15.211Z,914.60
2018-04-13T15:29:15.197Z,914.61
2018-04-13T15:30:15.144Z,914.62
2018-04-13T15:31:15.139Z,914.62
2018-04-13T15:32:15.104Z,914.60
2018-04-13T15:33:15.082Z,914.57
2018-04-13T15:34:15.054Z,914.57
2018-04-13T15:35:15.008Z,914.60
2018-04-13T15:36:14.989Z,914.60
2018-04-13T15:37:14.981Z,914.56
2018-04-13T15:38:14.953Z,914.61
2018-04-13T15:39:14.910Z,914.67
2018-04-13T15:40:14.919Z,914.66
2018-04-13T15:41:14.878Z,914.63
2018-04-13T15:42:14.832Z,914.65
2018-04-13T15:43:14.824Z,914.60
2018-04-13T15:44:14.802Z,914.61
2018-04-13T15:45:14.764Z,914.57
2018-04-13T15:46:14.791Z,914.60
2018-04-13T15:47:14.704Z,914.58
2018-04-13T15:48:14.702Z,914.55
2018-04-13T15:49:14.648Z,914.53
2018-04-13T15:50:14.638Z,914.61
2018-04-13T15:51:14.622Z,914.55
2018-04-13T15:52:14.592Z,914.55
2018-04-13T15:53:14.546Z,914.51
2018-04-13T15:54:14.841Z,914.54
2018-04-13T15:55:14.486Z,914.56
2018-04-13T15:56:14.479Z,914.56
2018-04-13T15:57:14.463Z,914.51
2018-04-13T15:58:14.418Z,914.53
2018-04-13T15:59:14.399Z,914.49
2018-04-13T16:00:14.382Z,914.52
2018-04-13T16:01:14.352Z,914.44
2018-04-13T16:02:14.313Z,914.45
2018-04-13T16:03:14.302Z,914.43
2018-04-13T16:04:14.264Z,914.39
2018-04-13T16:05:14.238Z,914.43
2018-04-13T16:06:14.220Z,914.40
2018-04-13T16:07:14.216Z,914.37
2018-04-13T16:08:14.175Z,914.37
2018-04-13T16:09:14.133Z,914.34
2018-04-13T16:10:14.122Z,914.37
2018-04-13T16:11:14.091Z,914.33
2018-04-13T16:12:14.057Z,914.36
2018-04-13T16:13:14.040Z,914.32
2018-04-13T16:14:14.004Z,914.32
2018-04-13T16:15:13.993Z,914.30
2018-04-13T16:16:13.968Z,914.28
2018-04-13T16:17:13.953Z,914.31
2018-04-13T16:18:13.903Z,914.25
2018-04-13T16:19:13.882Z,914.24
2018-04-13T16:20:14.120Z,914.20
2018-04-13T16:21:13.847Z,914.20
2018-04-13T16:22:13.803Z,914.17
2018-04-13T16:23:13.776Z,914.17
2018-04-13T16:24:13.759Z,914.16
2018-04-13T16:25:13.721Z,914.18
2018-04-13T16:26:13.897Z,914.20
2018-04-13T16:27:13.691Z,914.12
2018-04-13T16:28:13.663Z,914.12
2018-04-13T16:29:13.635Z,914.15
2018-04-13T16:30:13.592Z,914.18
2018-04-13T16:31:13.585Z,914.15
2018-04-13T16:32:13.540Z,914.17
2018-04-13T16:33:13.512Z,914.12
2018-04-13T16:34:13.515Z,914.09
2018-04-13T16:35:13.454Z,914.12
2018-04-13T16:36:13.440Z,914.09
2018-04-13T16:37:13.540Z,914.06
2018-04-13T16:38:13.395Z,914.07
2018-04-13T16:39:13.371Z,914.02
2018-04-13T16:40:13.340Z,913.99
2018-04-13T16:41:13.360Z,913.96
2018-04-13T16:42:13.306Z,913.99
2018-04-13T16:43:13.250Z,913.96
2018-04-13T16:44:13.246Z,913.95
2018-04-13T16:45:13.217Z,913.95
2018-04-13T16:46:13.189Z,913.90
2018-04-13T16:47:13.186Z,913.90
2018-04-13T16:48:13.139Z,913.91
2018-04-13T16:49:13.120Z,913.91
2018-04-13T16:50:13.108Z,913.90
2018-04-13T16:51:13.055Z,913.81
2018-04-13T16:52:13.041Z,913.80
2018-04-13T16:53:13.028Z,913.73
2018-04-13T16:54:13.007Z,913.77
2018-04-13T16:55:12.960Z,913.72
2018-04-13T16:56:12.935Z,913.69
2018-04-13T16:57:12.923Z,913.77
2018-04-13T16:58:12.927Z,913.73
2018-04-13T16:59:12.877Z,913.69
2018-04-13T17:00:12.830Z,913.69
2018-04-13T17:01:12.790Z,913.66
2018-04-13T17:02:12.787Z,913.70
2018-04-13T17:03:12.741Z,913.63
2018-04-13T17:04:12.732Z,913.61
2018-04-13T17:05:12.710Z,913.60
2018-04-13T17:06:12.686Z,913.54
2018-04-13T17:07:12.671Z,913.56
2018-04-13T17:08:12.640Z,913.53
2018-04-13T17:09:12.858Z,913.54
2018-04-13T17:10:12.571Z,913.57
2018-04-13T17:11:12.561Z,913.54
2018-04-13T17:12:12.530Z,913.54
2018-04-13T17:13:12.507Z,913.51
2018-04-13T17:14:12.534Z,913.51
2018-04-13T17:15:12.433Z,913.50
2018-04-13T17:16:12.415Z,913.51
2018-04-13T17:17:12.395Z,913.50
2018-04-13T17:18:12.359Z,913.49
2018-04-13T17:20:12.332Z,913.50
2018-04-13T17:21:12.277Z,913.43
2018-04-13T17:22:12.283Z,913.44
2018-04-13T17:23:12.279Z,913.43
2018-04-13T17:24:12.196Z,913.41
2018-04-13T17:25:12.190Z,913.42
2018-04-13T17:26:12.163Z,913.38
2018-04-13T17:27:12.144Z,913.39
2018-04-13T17:28:12.120Z,913.39
2018-04-13T17:29:12.151Z,913.37
2018-04-13T17:30:12.061Z,913.35
2018-04-13T17:31:12.034Z,913.38
2018-04-13T17:32:12.015Z,913.36
2018-04-13T17:33:11.977Z,913.35
2018-04-13T17:34:11.968Z,913.33
2018-04-13T17:35:11.945Z,913.28
2018-04-13T17:36:11.910Z,913.27
2018-04-13T17:37:11.884Z,913.29
2018-04-13T17:38:11.902Z,913.27
2018-04-13T17:39:11.838Z,913.25
2018-04-13T17:40:11.850Z,913.22
2018-04-13T17:41:11.791Z,913.20
2018-04-13T17:42:11.755Z,913.19
2018-04-13T17:43:11.730Z,913.18
2018-04-13T17:44:11.698Z,913.17
2018-04-13T17:45:11.665Z,913.14
2018-04-13T17:46:11.763Z,913.10
2018-04-13T17:47:11.637Z,913.18
2018-04-13T17:48:11.609Z,913.12
2018-04-13T17:49:11.565Z,913.14
2018-04-13T17:50:11.576Z,913.12
2018-04-13T17:51:11.559Z,913.15
2018-04-13T17:52:11.506Z,913.10
2018-04-13T17:53:11.486Z,913.06
2018-04-13T17:54:11.477Z,913.01
2018-04-13T17:55:11.409Z,913.03
2018-04-13T17:56:11.383Z,912.99
2018-04-13T17:57:11.369Z,913.02
2018-04-13T17:58:11.341Z,913.04
2018-04-13T17:59:11.345Z,913.10
2018-04-13T18:00:11.292Z,913.03
2018-04-13T18:01:11.261Z,913.01
2018-04-13T18:02:11.255Z,913.00
2018-04-13T18:03:11.224Z,913.05
2018-04-13T18:04:11.187Z,912.98
2018-04-13T18:05:11.193Z,913.00
2018-04-13T18:06:11.132Z,913.02
2018-04-13T18:07:11.111Z,913.03
2018-04-13T18:08:11.085Z,913.00
2018-04-13T18:09:11.078Z,912.97
2018-04-13T18:10:11.051Z,913.00
2018-04-13T18:11:11.012Z,912.98
2018-04-13T18:12:10.979Z,912.98
2018-04-13T18:13:10.968Z,912.96
2018-04-13T18:14:10.925Z,912.90
2018-04-13T18:15:10.926Z,912.92
2018-04-13T18:16:10.876Z,912.88
2018-04-13T18:17:10.959Z,912.91
2018-04-13T18:18:10.847Z,912.89
2018-04-13T18:19:10.810Z,912.88
2018-04-13T18:20:10.792Z,912.84
2018-04-13T18:21:10.772Z,912.80
2018-04-13T18:22:10.747Z,912.84
2018-04-13T18:23:10.881Z,912.79
2018-04-13T18:24:10.693Z,912.78
2018-04-13T18:25:10.657Z,912.80
2018-04-13T18:26:10.636Z,912.77
2018-04-13T18:27:10.622Z,912.75
2018-04-13T18:28:10.596Z,912.74
2018-04-13T18:29:10.552Z,912.74
2018-04-13T18:30:10.532Z,912.73
2018-04-13T18:31:10.510Z,912.73
2018-04-13T18:32:10.484Z,912.73
2018-04-13T18:33:11.759Z,912.75
2018-04-13T18:34:10.770Z,912.74
2018-04-13T18:35:10.433Z,912.71
2018-04-13T18:36:10.393Z,912.66
2018-04-13T18:37:10.372Z,912.71
2018-04-13T18:38:10.323Z,912.71
2018-04-13T18:39:10.319Z,912.69
2018-04-13T18:40:10.315Z,912.74
2018-04-13T18:41:10.261Z,912.74
2018-04-13T18:42:10.236Z,912.71
2018-04-13T18:43:10.212Z,912.73
2018-04-13T18:44:10.163Z,912.70
2018-04-13T18:46:10.211Z,912.68
2018-04-13T18:47:10.125Z,912.66
2018-04-13T18:48:10.082Z,912.66
2018-04-13T18:49:10.265Z,912.63
2018-04-13T18:50:10.033Z,912.64
2018-04-13T18:51:10.005Z,912.65
2018-04-13T18:52:09.968Z,912.65
2018-04-13T18:53:09.949Z,912.65
2018-04-13T18:54:09.946Z,912.68
2018-04-13T18:55:10.169Z,912.67
2018-04-13T18:56:09.891Z,912.69
2018-04-13T18:57:09.846Z,912.62
2018-04-13T18:58:09.892Z,912.69
2018-04-13T18:59:09.809Z,912.64
2018-04-13T19:00:09.775Z,912.64
2018-04-13T19:01:09.760Z,912.66
2018-04-13T19:02:09.722Z,912.62
2018-04-13T19:03:09.698Z,912.66
2018-04-13T19:04:09.671Z,912.67
2018-04-13T19:05:09.640Z,912.70
2018-04-13T19:06:09.631Z,912.68
2018-04-13T19:07:09.603Z,912.73
2018-04-13T19:08:09.582Z,912.72
2018-04-13T19:09:09.535Z,912.68
2018-04-13T19:10:09.507Z,912.69
2018-04-13T19:11:09.507Z,912.67
2018-04-13T19:12:09.469Z,912.66
2018-04-13T19:13:09.450Z,912.62
2018-04-13T19:14:09.424Z,912.61
2018-04-13T19:15:09.399Z,912.60
2018-04-13T19:16:09.366Z,912.58
2018-04-13T19:17:09.328Z,912.58
2018-04-13T19:18:09.320Z,912.60
2018-04-13T19:19:09.303Z,912.61
2018-04-13T19:20:09.273Z,912.59
2018-04-13T19:21:09.231Z,912.63
2018-04-13T19:22:09.249Z,912.60
2018-04-13T19:23:09.175Z,912.58
2018-04-13T19:24:09.169Z,912.55
2018-04-13T19:25:09.129Z,912.53
2018-04-13T19:26:34.818Z,912.50
2018-04-13T19:27:09.085Z,912.50
2018-04-13T19:28:09.076Z,912.49
2018-04-13T19:29:09.047Z,912.52
2018-04-13T19:30:09.056Z,912.50
2018-04-13T19:31:08.980Z,912.54
2018-04-13T19:32:08.957Z,912.51
2018-04-13T19:33:08.952Z,912.55
2018-04-13T19:34:08.898Z,912.53
2018-04-13T19:35:08.869Z,912.51
2018-04-13T19:36:08.870Z,912.50
2018-04-13T19:37:08.869Z,912.53
2018-04-13T19:38:08.819Z,912.49
2018-04-13T19:39:08.798Z,912.52
2018-04-13T19:40:08.767Z,912.52
2018-04-13T19:41:08.740Z,912.53
2018-04-13T19:42:08.701Z,912.52
2018-04-13T19:43:08.693Z,912.54
2018-04-13T19:44:08.862Z,912.51
2018-04-13T19:45:08.625Z,912.52
2018-04-13T19:46:08.604Z,912.51
2018-04-13T19:47:08.597Z,912.47
2018-04-13T19:48:08.559Z,912.44
2018-04-13T19:49:08.538Z,912.44
2018-04-13T19:50:08.536Z,912.41
2018-04-13T19:51:08.474Z,912.43
2018-04-13T19:52:08.487Z,912.41
2018-04-13T19:53:08.426Z,912.43
2018-04-13T19:54:08.414Z,912.38
2018-04-13T19:55:08.387Z,912.35
2018-04-13T19:56:08.341Z,912.35
2018-04-13T19:57:08.314Z,912.31
2018-04-13T19:58:08.359Z,912.33
2018-04-13T19:59:08.279Z,912.35
2018-04-13T20:00:08.252Z,912.31
2018-04-13T20:01:08.224Z,912.34
2018-04-13T20:02:08.197Z,912.40
2018-04-13T20:03:08.165Z,912.42
2018-04-13T20:04:08.132Z,912.42
2018-04-13T20:05:08.133Z,912.46
2018-04-13T20:06:08.107Z,912.48
2018-04-13T20:07:08.081Z,912.52
2018-04-13T20:08:08.051Z,912.53
2018-04-13T20:09:08.071Z,912.54
2018-04-13T20:10:07.998Z,912.58
2018-04-13T20:11:07.976Z,912.62
2018-04-13T20:12:07.948Z,912.62
2018-04-13T20:13:07.969Z,912.62
2018-04-13T20:14:07.897Z,912.58
2018-04-13T20:15:07.867Z,912.58
2018-04-13T20:16:07.857Z,912.61
2018-04-13T20:17:07.842Z,912.59
2018-04-13T20:18:07.777Z,912.61
2018-04-13T20:19:07.763Z,912.63
2018-04-13T20:20:07.741Z,912.63
2018-04-13T20:21:07.721Z,912.63
2018-04-13T20:22:07.674Z,912.66
2018-04-13T20:23:07.671Z,912.64
2018-04-13T20:24:07.685Z,912.61
2018-04-13T20:25:07.613Z,912.60
2018-04-13T20:26:07.756Z,912.62
2018-04-13T20:27:07.548Z,912.61
2018-04-13T20:28:07.537Z,912.63
2018-04-13T20:29:07.519Z,912.71
2018-04-13T20:30:07.488Z,912.71
2018-04-13T20:31:07.468Z,912.75
2018-04-13T20:32:07.451Z,912.76
2018-04-13T20:33:07.442Z,912.78
2018-04-13T20:34:07.379Z,912.73
2018-04-13T20:35:07.354Z,912.73
2018-04-13T20:36:07.340Z,912.75
2018-04-13T20:37:07.315Z,912.72
2018-04-13T20:38:07.287Z,912.74
2018-04-13T20:39:07.262Z,912.74
2018-04-13T20:40:07.266Z,912.71
2018-04-13T20:41:07.267Z,912.69
2018-04-13T20:42:07.177Z,912.72
2018-04-13T20:43:07.166Z,912.68
2018-04-13T20:44:07.147Z,912.68
2018-04-13T20:45:07.114Z,912.69
2018-04-13T20:46:07.070Z,912.69
2018-04-13T20:47:07.098Z,912.70
2018-04-13T20:48:07.033Z,912.74
2018-04-13T20:49:06.994Z,912.77
2018-04-13T20:50:06.988Z,912.80
2018-04-13T20:51:06.959Z,912.79
2018-04-13T20:52:06.929Z,912.86
2018-04-13T20:53:06.899Z,912.83
2018-04-13T20:54:06.868Z,912.81
2018-04-13T20:55:06.881Z,912.85
2018-04-13T20:56:06.812Z,912.81
2018-04-13T20:57:06.813Z,912.80
2018-04-13T20:58:06.782Z,912.79
2018-04-13T20:59:06.752Z,912.77
2018-04-13T21:00:06.721Z,912.75
2018-04-13T21:01:06.710Z,912.72
2018-04-13T21:02:06.678Z,912.70
2018-04-13T21:03:06.661Z,912.72
2018-04-13T21:04:06.632Z,912.68
2018-04-13T21:05:06.615Z,912.69
2018-04-13T21:06:06.567Z,912.68
2018-04-13T21:07:06.787Z,912.72
2018-04-13T21:08:06.525Z,912.72
2018-04-13T21:09:06.510Z,912.74
2018-04-13T21:10:06.471Z,912.78
2018-04-13T21:11:06.437Z,912.78
2018-04-13T21:12:06.415Z,912.84
2018-04-13T21:13:06.386Z,912.84
2018-04-13T21:14:06.358Z,912.81
2018-04-13T21:15:06.339Z,912.85
2018-04-13T21:16:06.323Z,912.84
2018-04-13T21:17:06.296Z,912.87
2018-04-13T21:18:06.283Z,912.87
2018-04-13T21:19:06.225Z,912.89
2018-04-13T21:20:06.211Z,912.90
2018-04-13T21:21:06.194Z,912.91
2018-04-13T21:22:06.156Z,912.88
2018-04-13T21:23:06.145Z,912.87
2018-04-13T21:24:06.103Z,912.86
2018-04-13T21:25:06.085Z,912.88
2018-04-13T21:26:06.074Z,912.87
2018-04-13T21:27:06.035Z,912.87
2018-04-13T21:28:06.006Z,912.90
2018-04-13T21:29:05.972Z,912.87
2018-04-13T21:30:05.957Z,912.92
2018-04-13T21:31:05.928Z,912.98
2018-04-13T21:32:05.915Z,913.01
2018-04-13T21:33:05.868Z,913.04
2018-04-13T21:34:05.867Z,913.04
2018-04-13T21:35:05.838Z,913.08
2018-04-13T21:36:05.822Z,913.12
2018-04-13T21:37:05.794Z,913.09
2018-04-13T21:38:05.846Z,913.14
2018-04-13T21:39:05.726Z,913.11
2018-04-13T21:40:05.693Z,913.14
2018-04-13T21:41:05.671Z,913.14
2018-04-13T21:42:05.659Z,913.16
2018-04-13T21:43:05.624Z,913.16
2018-04-13T21:44:05.596Z,913.16
2018-04-13T21:45:05.583Z,913.20
2018-04-13T21:46:05.560Z,913.18
2018-04-13T21:47:05.525Z,913.18
2018-04-13T21:48:05.484Z,913.20
2018-04-13T21:49:05.688Z,913.20
2018-04-13T21:50:05.476Z,913.21
2018-04-13T21:51:05.418Z,913.20
2018-04-13T21:52:05.432Z,913.23
2018-04-13T21:53:05.363Z,913.19
2018-04-13T21:54:05.361Z,913.20
2018-04-13T21:55:05.326Z,913.16
2018-04-13T21:56:05.279Z,913.22
2018-04-13T21:57:05.256Z,913.17
2018-04-13T21:58:05.259Z,913.18
2018-04-13T21:59:05.221Z,913.15
2018-04-13T22:00:05.210Z,913.13
2018-04-13T22:01:05.158Z,913.11
2018-04-13T22:02:05.137Z,913.10
2018-04-13T22:03:05.167Z,913.09
2018-04-13T22:04:05.076Z,913.12
2018-04-13T22:05:05.310Z,913.12
2018-04-13T22:06:05.030Z,913.16
2018-04-13T22:07:05.019Z,913.15
2018-04-13T22:08:04.986Z,913.20
2018-04-13T22:09:04.967Z,913.16
2018-04-13T22:10:04.932Z,913.24
2018-04-13T22:11:04.901Z,913.26
2018-04-13T22:12:04.872Z,913.26
2018-04-13T22:13:04.853Z,913.32
2018-04-13T22:14:04.830Z,913.34
2018-04-13T22:15:04.795Z,913.40
2018-04-13T22:16:04.764Z,913.45
2018-04-13T22:17:04.746Z,913.46
2018-04-13T22:18:04.718Z,913.46
2018-04-13T22:19:04.693Z,913.50
2018-04-13T22:20:04.681Z,913.48
2018-04-13T22:21:04.653Z,913.50
2018-04-13T22:22:04.762Z,913.50
2018-04-13T22:23:04.598Z,913.51
2018-04-13T22:24:04.565Z,913.52
2018-04-13T22:25:04.559Z,913.57
2018-04-13T22:26:04.518Z,913.59
2018-04-13T22:27:04.493Z,913.63
2018-04-13T22:28:04.465Z,913.58
2018-04-13T22:29:04.472Z,913.62
2018-04-13T22:30:04.431Z,913.62
2018-04-13T22:31:04.387Z,913.62
2018-04-13T22:32:04.375Z,913.67
2018-04-13T22:33:04.351Z,913.74
2018-04-13T22:34:04.307Z,913.77
2018-04-13T22:35:04.303Z,913.78
2018-04-13T22:36:04.256Z,913.77
2018-04-13T22:37:04.241Z,913.85
2018-04-13T22:38:04.206Z,913.85
2018-04-13T22:39:04.196Z,913.90
2018-04-13T22:40:04.162Z,913.89
2018-04-13T22:41:04.162Z,913.90
2018-04-13T22:42:04.111Z,913.89
2018-04-13T22:44:04.072Z,913.92
2018-04-13T22:45:04.031Z,913.88
2018-04-13T22:46:04.015Z,913.91
2018-04-13T22:47:04.021Z,913.93
2018-04-13T22:48:03.950Z,913.96
2018-04-13T22:49:03.921Z,913.93
2018-04-13T22:50:03.908Z,913.97
2018-04-13T22:51:03.885Z,913.97
2018-04-13T22:52:03.862Z,914.02
2018-04-13T22:53:03.834Z,914.03
2018-04-13T22:54:03.799Z,914.00
2018-04-13T22:55:03.777Z,914.04
2018-04-13T22:56:03.733Z,914.05
2018-04-13T22:57:03.750Z,914.07
2018-04-13T22:58:03.753Z,914.10
2018-04-13T22:59:03.671Z,914.07
2018-04-13T23:00:03.628Z,914.13
2018-04-13T23:01:03.621Z,914.11
2018-04-13T23:02:03.580Z,914.13
2018-04-13T23:03:03.623Z,914.17
2018-04-13T23:04:03.830Z,914.16
2018-04-13T23:05:03.508Z,914.16
2018-04-13T23:06:03.516Z,914.17
2018-04-13T23:07:03.449Z,914.17
2018-04-13T23:08:03.440Z,914.20
2018-04-13T23:09:03.417Z,914.19
2018-04-13T23:10:03.389Z,914.23
2018-04-13T23:11:03.353Z,914.21
2018-04-13T23:12:03.352Z,914.23
2018-04-13T23:13:03.316Z,914.27
2018-04-13T23:14:03.287Z,914.35
2018-04-13T23:15:03.252Z,914.37
2018-04-13T23:16:03.264Z,914.40
2018-04-13T23:17:03.200Z,914.39
2018-04-13T23:18:03.200Z,914.47
2018-04-13T23:19:03.196Z,914.49
2018-04-13T23:20:03.261Z,914.51
2018-04-13T23:21:03.093Z,914.54
2018-04-13T23:22:03.090Z,914.55
2018-04-13T23:23:03.077Z,914.56
2018-04-13T23:24:03.027Z,914.59
2018-04-13T23:25:02.991Z,914.61
2018-04-13T23:27:02.966Z,914.65
2018-04-13T23:28:02.925Z,914.66
2018-04-13T23:29:02.899Z,914.69
2018-04-13T23:30:02.875Z,914.71
2018-04-13T23:31:02.858Z,914.72
2018-04-13T23:32:02.815Z,914.71
2018-04-13T23:33:02.777Z,914.78
2018-04-13T23:34:02.777Z,914.77
2018-04-13T23:35:02.755Z,914.80
2018-04-13T23:36:02.724Z,914.83
2018-04-13T23:37:02.694Z,914.83
2018-04-13T23:38:02.671Z,914.84
2018-04-13T23:39:02.652Z,914.85
2018-04-13T23:40:02.617Z,914.86
2018-04-13T23:41:02.569Z,914.82
2018-04-13T23:42:02.835Z,914.82
2018-04-13T23:43:02.520Z,914.79
2018-04-13T23:44:02.499Z,914.79
2018-04-13T23:45:02.471Z,914.75
2018-04-13T23:46:02.470Z,914.77
2018-04-13T23:47:02.410Z,914.76
2018-04-13T23:48:02.413Z,914.77
2018-04-13T23:49:02.364Z,914.81
2018-04-13T23:50:02.360Z,914.82
2018-04-13T23:51:02.305Z,914.84
2018-04-13T23:52:02.285Z,914.86
2018-04-13T23:53:02.285Z,914.90
2018-04-13T23:54:02.226Z,914.88
2018-04-13T23:55:02.214Z,914.95
2018-04-13T23:56:02.172Z,914.99
2018-04-13T23:57:02.173Z,915.04
2018-04-13T23:58:02.306Z,915.11
2018-04-13T23:59:02.099Z,915.14
